sensor_id;sensor_type;location;lat;lon;timestamp;P1;durP1;ratioP1;P2;durP2;ratioP2
18196;SDS011;9224;52.422;13.024;2022-08-19T00:00:34;12.38;;;11.27;;
18196;SDS011;9224;52.422;13.024;2022-08-19T00:03:01;12.57;;;11.52;;
18196;SDS011;9224;52.422;13.024;2022-08-19T00:05:28;12.25;;;11.32;;
18196;SDS011;9224;52.422;13.024;2022-08-19T00:07:54;12.02;;;11.02;;
18196;SDS011;9224;52.422;13.024;2022-08-19T00:10:21;12.57;;;11.68;;
18196;SDS011;9224;52.422;13.024;2022-08-19T00:12:49;13.13;;;12.02;;
18196;SDS011;9224;52.422;13.024;2022-08-19T00:15:17;12.77;;;11.57;;
18196;SDS011;9224;52.422;13.024;2022-08-19T00:17:45;13.23;;;12.13;;
18196;SDS011;9224;52.422;13.024;2022-08-19T00:20:13;13.15;;;12.15;;
18196;SDS011;9224;52.422;13.024;2022-08-19T00:22:42;13.18;;;12.07;;
18196;SDS011;9224;52.422;13.024;2022-08-19T00:25:09;13.10;;;12.10;;
18196;SDS011;9224;52.422;13.024;2022-08-19T00:27:36;13.43;;;12.32;;
18196;SDS011;9224;52.422;13.024;2022-08-19T00:30:03;13.75;;;12.55;;
18196;SDS011;9224;52.422;13.024;2022-08-19T00:32:31;14.05;;;12.88;;
18196;SDS011;9224;52.422;13.024;2022-08-19T00:34:59;13.30;;;12.20;;
18196;SDS011;9224;52.422;13.024;2022-08-19T00:37:26;14.33;;;13.13;;
18196;SDS011;9224;52.422;13.024;2022-08-19T00:39:53;13.77;;;12.57;;
18196;SDS011;9224;52.422;13.024;2022-08-19T00:42:21;13.27;;;12.18;;
18196;SDS011;9224;52.422;13.024;2022-08-19T00:44:47;13.73;;;12.60;;
18196;SDS011;9224;52.422;13.024;2022-08-19T00:47:15;14.05;;;12.95;;
18196;SDS011;9224;52.422;13.024;2022-08-19T00:49:44;15.13;;;13.75;;
18196;SDS011;9224;52.422;13.024;2022-08-19T00:52:16;15.48;;;14.18;;
18196;SDS011;9224;52.422;13.024;2022-08-19T00:54:47;15.73;;;14.43;;
18196;SDS011;9224;52.422;13.024;2022-08-19T00:57:16;16.43;;;14.83;;
18196;SDS011;9224;52.422;13.024;2022-08-19T00:59:44;16.13;;;14.80;;
18196;SDS011;9224;52.422;13.024;2022-08-19T01:02:12;14.90;;;13.70;;
18196;SDS011;9224;52.422;13.024;2022-08-19T01:04:39;16.90;;;15.43;;
18196;SDS011;9224;52.422;13.024;2022-08-19T01:07:07;16.52;;;15.02;;
18196;SDS011;9224;52.422;13.024;2022-08-19T01:09:33;16.55;;;15.15;;
18196;SDS011;9224;52.422;13.024;2022-08-19T01:12:00;16.27;;;14.88;;
18196;SDS011;9224;52.422;13.024;2022-08-19T01:14:27;15.43;;;14.27;;
18196;SDS011;9224;52.422;13.024;2022-08-19T01:16:54;15.98;;;14.68;;
18196;SDS011;9224;52.422;13.024;2022-08-19T01:19:23;15.13;;;13.82;;
18196;SDS011;9224;52.422;13.024;2022-08-19T01:21:54;13.65;;;12.65;;
18196;SDS011;9224;52.422;13.024;2022-08-19T01:24:25;13.93;;;12.83;;
18196;SDS011;9224;52.422;13.024;2022-08-19T01:26:52;14.50;;;13.30;;
18196;SDS011;9224;52.422;13.024;2022-08-19T01:29:19;15.00;;;13.80;;
18196;SDS011;9224;52.422;13.024;2022-08-19T01:31:45;15.18;;;13.88;;
18196;SDS011;9224;52.422;13.024;2022-08-19T01:34:12;17.15;;;15.55;;
18196;SDS011;9224;52.422;13.024;2022-08-19T01:36:41;18.30;;;16.38;;
18196;SDS011;9224;52.422;13.024;2022-08-19T01:39:13;20.25;;;18.33;;
18196;SDS011;9224;52.422;13.024;2022-08-19T01:41:43;21.10;;;19.17;;
18196;SDS011;9224;52.422;13.024;2022-08-19T01:44:09;21.92;;;19.92;;
18196;SDS011;9224;52.422;13.024;2022-08-19T01:46:36;21.88;;;19.83;;
18196;SDS011;9224;52.422;13.024;2022-08-19T01:49:04;21.30;;;19.30;;
18196;SDS011;9224;52.422;13.024;2022-08-19T01:51:31;22.88;;;20.73;;
18196;SDS011;9224;52.422;13.024;2022-08-19T01:53:58;22.25;;;20.25;;
18196;SDS011;9224;52.422;13.024;2022-08-19T01:56:24;23.15;;;20.95;;
18196;SDS011;9224;52.422;13.024;2022-08-19T01:58:53;24.20;;;22.00;;
18196;SDS011;9224;52.422;13.024;2022-08-19T02:01:21;23.80;;;21.67;;
18196;SDS011;9224;52.422;13.024;2022-08-19T02:03:48;23.50;;;21.40;;
18196;SDS011;9224;52.422;13.024;2022-08-19T02:06:14;22.48;;;20.58;;
18196;SDS011;9224;52.422;13.024;2022-08-19T02:08:42;21.98;;;20.25;;
18196;SDS011;9224;52.422;13.024;2022-08-19T02:11:17;23.63;;;21.50;;
18196;SDS011;9224;52.422;13.024;2022-08-19T02:13:44;24.33;;;22.23;;
18196;SDS011;9224;52.422;13.024;2022-08-19T02:16:12;24.15;;;22.15;;
18196;SDS011;9224;52.422;13.024;2022-08-19T02:18:39;24.30;;;22.23;;
18196;SDS011;9224;52.422;13.024;2022-08-19T02:21:05;25.02;;;22.83;;
18196;SDS011;9224;52.422;13.024;2022-08-19T02:23:32;25.20;;;23.08;;
18196;SDS011;9224;52.422;13.024;2022-08-19T02:25:58;24.40;;;22.30;;
18196;SDS011;9224;52.422;13.024;2022-08-19T02:28:25;23.17;;;21.27;;
18196;SDS011;9224;52.422;13.024;2022-08-19T02:30:51;25.00;;;22.88;;
18196;SDS011;9224;52.422;13.024;2022-08-19T02:33:19;25.40;;;23.20;;
18196;SDS011;9224;52.422;13.024;2022-08-19T02:36:05;24.58;;;22.40;;
18196;SDS011;9224;52.422;13.024;2022-08-19T02:38:51;24.75;;;22.65;;
18196;SDS011;9224;52.422;13.024;2022-08-19T02:41:36;23.10;;;21.10;;
18196;SDS011;9224;52.422;13.024;2022-08-19T02:44:21;25.17;;;23.05;;
18196;SDS011;9224;52.422;13.024;2022-08-19T02:47:06;25.60;;;23.40;;
18196;SDS011;9224;52.422;13.024;2022-08-19T02:49:53;26.88;;;24.48;;
18196;SDS011;9224;52.422;13.024;2022-08-19T02:52:38;27.42;;;25.02;;
18196;SDS011;9224;52.422;13.024;2022-08-19T02:55:24;26.25;;;24.05;;
18196;SDS011;9224;52.422;13.024;2022-08-19T02:58:09;25.98;;;23.67;;
18196;SDS011;9224;52.422;13.024;2022-08-19T03:00:55;26.27;;;23.97;;
18196;SDS011;9224;52.422;13.024;2022-08-19T03:03:41;24.95;;;22.85;;
18196;SDS011;9224;52.422;13.024;2022-08-19T03:06:27;24.00;;;21.90;;
18196;SDS011;9224;52.422;13.024;2022-08-19T03:08:54;22.85;;;20.95;;
18196;SDS011;9224;52.422;13.024;2022-08-19T03:11:21;23.13;;;21.23;;
18196;SDS011;9224;52.422;13.024;2022-08-19T03:13:48;20.55;;;18.95;;
18196;SDS011;9224;52.422;13.024;2022-08-19T03:16:16;20.55;;;18.95;;
18196;SDS011;9224;52.422;13.024;2022-08-19T03:18:42;20.33;;;18.55;;
18196;SDS011;9224;52.422;13.024;2022-08-19T03:21:09;20.53;;;18.73;;
18196;SDS011;9224;52.422;13.024;2022-08-19T03:23:37;20.38;;;18.77;;
18196;SDS011;9224;52.422;13.024;2022-08-19T03:26:04;20.33;;;18.63;;
18196;SDS011;9224;52.422;13.024;2022-08-19T03:28:31;19.63;;;18.05;;
18196;SDS011;9224;52.422;13.024;2022-08-19T03:30:59;20.25;;;18.48;;
18196;SDS011;9224;52.422;13.024;2022-08-19T03:33:28;20.17;;;18.60;;
18196;SDS011;9224;52.422;13.024;2022-08-19T03:36:03;20.45;;;18.75;;
18196;SDS011;9224;52.422;13.024;2022-08-19T03:38:32;21.27;;;19.37;;
18196;SDS011;9224;52.422;13.024;2022-08-19T03:41:03;20.98;;;19.27;;
18196;SDS011;9224;52.422;13.024;2022-08-19T03:43:31;21.98;;;20.17;;
18196;SDS011;9224;52.422;13.024;2022-08-19T03:46:00;23.10;;;21.17;;
18196;SDS011;9224;52.422;13.024;2022-08-19T03:48:27;22.77;;;20.95;;
18196;SDS011;9224;52.422;13.024;2022-08-19T03:50:55;23.50;;;21.50;;
18196;SDS011;9224;52.422;13.024;2022-08-19T03:53:23;23.50;;;21.50;;
18196;SDS011;9224;52.422;13.024;2022-08-19T03:55:50;24.33;;;22.20;;
18196;SDS011;9224;52.422;13.024;2022-08-19T03:58:19;25.05;;;22.95;;
18196;SDS011;9224;52.422;13.024;2022-08-19T04:00:46;25.15;;;23.05;;
18196;SDS011;9224;52.422;13.024;2022-08-19T04:03:12;25.27;;;23.17;;
18196;SDS011;9224;52.422;13.024;2022-08-19T04:05:39;24.13;;;22.23;;
18196;SDS011;9224;52.422;13.024;2022-08-19T04:08:05;25.33;;;23.23;;
18196;SDS011;9224;52.422;13.024;2022-08-19T04:10:34;25.80;;;23.60;;
18196;SDS011;9224;52.422;13.024;2022-08-19T04:13:02;25.60;;;23.40;;
18196;SDS011;9224;52.422;13.024;2022-08-19T04:15:30;25.08;;;22.98;;
18196;SDS011;9224;52.422;13.024;2022-08-19T04:18:00;27.25;;;24.95;;
18196;SDS011;9224;52.422;13.024;2022-08-19T04:20:27;28.73;;;26.30;;
18196;SDS011;9224;52.422;13.024;2022-08-19T04:22:53;32.10;;;29.30;;
18196;SDS011;9224;52.422;13.024;2022-08-19T04:25:20;32.28;;;29.13;;
18196;SDS011;9224;52.422;13.024;2022-08-19T04:27:46;32.42;;;29.45;;
18196;SDS011;9224;52.422;13.024;2022-08-19T04:30:13;30.23;;;27.60;;
18196;SDS011;9224;52.422;13.024;2022-08-19T04:32:44;30.53;;;27.97;;
18196;SDS011;9224;52.422;13.024;2022-08-19T04:35:10;28.65;;;26.15;;
18196;SDS011;9224;52.422;13.024;2022-08-19T04:37:36;27.63;;;25.27;;
18196;SDS011;9224;52.422;13.024;2022-08-19T04:40:05;28.60;;;26.00;;
18196;SDS011;9224;52.422;13.024;2022-08-19T04:42:50;26.63;;;24.10;;
18196;SDS011;9224;52.422;13.024;2022-08-19T04:45:16;25.73;;;23.63;;
18196;SDS011;9224;52.422;13.024;2022-08-19T04:47:44;25.63;;;23.60;;
18196;SDS011;9224;52.422;13.024;2022-08-19T04:50:11;24.23;;;22.23;;
18196;SDS011;9224;52.422;13.024;2022-08-19T04:52:37;23.58;;;21.67;;
18196;SDS011;9224;52.422;13.024;2022-08-19T04:55:08;25.05;;;22.85;;
18196;SDS011;9224;52.422;13.024;2022-08-19T04:57:35;24.13;;;22.02;;
18196;SDS011;9224;52.422;13.024;2022-08-19T05:00:06;24.15;;;22.15;;
18196;SDS011;9224;52.422;13.024;2022-08-19T05:02:33;22.55;;;20.75;;
18196;SDS011;9224;52.422;13.024;2022-08-19T05:05:02;23.92;;;22.02;;
18196;SDS011;9224;52.422;13.024;2022-08-19T05:07:29;23.65;;;21.45;;
18196;SDS011;9224;52.422;13.024;2022-08-19T05:09:56;23.38;;;21.38;;
18196;SDS011;9224;52.422;13.024;2022-08-19T05:12:22;22.45;;;20.65;;
18196;SDS011;9224;52.422;13.024;2022-08-19T05:14:49;24.13;;;22.13;;
18196;SDS011;9224;52.422;13.024;2022-08-19T05:17:16;24.00;;;22.00;;
18196;SDS011;9224;52.422;13.024;2022-08-19T05:19:43;24.20;;;22.20;;
18196;SDS011;9224;52.422;13.024;2022-08-19T05:22:28;23.02;;;21.13;;
18196;SDS011;9224;52.422;13.024;2022-08-19T05:25:01;24.25;;;22.23;;
18196;SDS011;9224;52.422;13.024;2022-08-19T05:27:29;23.70;;;21.85;;
18196;SDS011;9224;52.422;13.024;2022-08-19T05:29:56;22.02;;;20.23;;
18196;SDS011;9224;52.422;13.024;2022-08-19T05:32:22;22.50;;;20.58;;
18196;SDS011;9224;52.422;13.024;2022-08-19T05:34:49;23.30;;;21.40;;
18196;SDS011;9224;52.422;13.024;2022-08-19T05:37:15;21.77;;;19.93;;
18196;SDS011;9224;52.422;13.024;2022-08-19T05:39:43;23.20;;;21.38;;
18196;SDS011;9224;52.422;13.024;2022-08-19T05:42:10;22.67;;;20.67;;
18196;SDS011;9224;52.422;13.024;2022-08-19T05:44:39;22.00;;;20.20;;
18196;SDS011;9224;52.422;13.024;2022-08-19T05:47:09;22.85;;;20.95;;
18196;SDS011;9224;52.422;13.024;2022-08-19T05:49:37;23.65;;;21.70;;
18196;SDS011;9224;52.422;13.024;2022-08-19T05:52:04;21.33;;;19.63;;
18196;SDS011;9224;52.422;13.024;2022-08-19T05:54:31;21.85;;;20.15;;
18196;SDS011;9224;52.422;13.024;2022-08-19T05:57:00;23.55;;;21.63;;
18196;SDS011;9224;52.422;13.024;2022-08-19T05:59:26;22.75;;;20.85;;
18196;SDS011;9224;52.422;13.024;2022-08-19T06:01:53;22.63;;;20.83;;
18196;SDS011;9224;52.422;13.024;2022-08-19T06:04:22;23.83;;;21.88;;
18196;SDS011;9224;52.422;13.024;2022-08-19T06:06:50;24.25;;;22.35;;
18196;SDS011;9224;52.422;13.024;2022-08-19T06:09:19;22.88;;;21.05;;
18196;SDS011;9224;52.422;13.024;2022-08-19T06:11:46;23.02;;;21.23;;
18196;SDS011;9224;52.422;13.024;2022-08-19T06:14:16;23.02;;;21.33;;
18196;SDS011;9224;52.422;13.024;2022-08-19T06:16:46;24.02;;;22.02;;
18196;SDS011;9224;52.422;13.024;2022-08-19T06:19:14;22.92;;;21.20;;
18196;SDS011;9224;52.422;13.024;2022-08-19T06:21:42;22.48;;;20.67;;
18196;SDS011;9224;52.422;13.024;2022-08-19T06:24:10;23.80;;;21.70;;
18196;SDS011;9224;52.422;13.024;2022-08-19T06:26:42;22.50;;;20.80;;
18196;SDS011;9224;52.422;13.024;2022-08-19T06:29:10;21.33;;;19.63;;
18196;SDS011;9224;52.422;13.024;2022-08-19T06:31:43;23.15;;;21.35;;
18196;SDS011;9224;52.422;13.024;2022-08-19T06:34:10;22.95;;;21.10;;
18196;SDS011;9224;52.422;13.024;2022-08-19T06:36:38;24.20;;;22.30;;
18196;SDS011;9224;52.422;13.024;2022-08-19T06:39:07;23.83;;;21.88;;
18196;SDS011;9224;52.422;13.024;2022-08-19T06:41:35;23.20;;;21.30;;
18196;SDS011;9224;52.422;13.024;2022-08-19T06:44:02;23.00;;;21.15;;
18196;SDS011;9224;52.422;13.024;2022-08-19T06:46:30;22.40;;;20.50;;
18196;SDS011;9224;52.422;13.024;2022-08-19T06:48:58;21.13;;;19.42;;
18196;SDS011;9224;52.422;13.024;2022-08-19T06:51:24;21.75;;;20.05;;
18196;SDS011;9224;52.422;13.024;2022-08-19T06:53:52;21.52;;;19.83;;
18196;SDS011;9224;52.422;13.024;2022-08-19T06:56:20;20.92;;;19.20;;
18196;SDS011;9224;52.422;13.024;2022-08-19T06:58:48;21.52;;;19.75;;
18196;SDS011;9224;52.422;13.024;2022-08-19T07:01:16;21.33;;;19.60;;
18196;SDS011;9224;52.422;13.024;2022-08-19T07:03:42;20.60;;;18.92;;
18196;SDS011;9224;52.422;13.024;2022-08-19T07:06:11;20.42;;;18.83;;
18196;SDS011;9224;52.422;13.024;2022-08-19T07:08:40;20.17;;;18.63;;
18196;SDS011;9224;52.422;13.024;2022-08-19T07:11:08;20.05;;;18.50;;
18196;SDS011;9224;52.422;13.024;2022-08-19T07:13:36;20.40;;;18.60;;
18196;SDS011;9224;52.422;13.024;2022-08-19T07:16:04;19.45;;;18.05;;
18196;SDS011;9224;52.422;13.024;2022-08-19T07:18:31;20.45;;;18.77;;
18196;SDS011;9224;52.422;13.024;2022-08-19T07:21:02;19.40;;;17.90;;
18196;SDS011;9224;52.422;13.024;2022-08-19T07:23:30;20.25;;;18.65;;
18196;SDS011;9224;52.422;13.024;2022-08-19T07:25:57;20.00;;;18.40;;
18196;SDS011;9224;52.422;13.024;2022-08-19T07:28:23;19.90;;;18.15;;
18196;SDS011;9224;52.422;13.024;2022-08-19T07:30:50;20.05;;;18.45;;
18196;SDS011;9224;52.422;13.024;2022-08-19T07:33:17;20.05;;;18.45;;
18196;SDS011;9224;52.422;13.024;2022-08-19T07:35:44;19.98;;;18.33;;
18196;SDS011;9224;52.422;13.024;2022-08-19T07:38:10;19.25;;;17.75;;
18196;SDS011;9224;52.422;13.024;2022-08-19T07:40:38;19.20;;;17.65;;
18196;SDS011;9224;52.422;13.024;2022-08-19T07:43:06;20.20;;;18.60;;
18196;SDS011;9224;52.422;13.024;2022-08-19T07:45:32;20.02;;;18.52;;
18196;SDS011;9224;52.422;13.024;2022-08-19T07:47:59;20.95;;;19.08;;
18196;SDS011;9224;52.422;13.024;2022-08-19T07:50:26;19.47;;;17.97;;
18196;SDS011;9224;52.422;13.024;2022-08-19T07:52:52;20.60;;;18.87;;
18196;SDS011;9224;52.422;13.024;2022-08-19T07:55:20;19.30;;;17.83;;
18196;SDS011;9224;52.422;13.024;2022-08-19T07:57:50;20.08;;;18.45;;
18196;SDS011;9224;52.422;13.024;2022-08-19T08:00:17;21.27;;;19.60;;
18196;SDS011;9224;52.422;13.024;2022-08-19T08:02:44;20.35;;;18.70;;
18196;SDS011;9224;52.422;13.024;2022-08-19T08:05:11;21.60;;;19.92;;
18196;SDS011;9224;52.422;13.024;2022-08-19T08:07:54;24.23;;;22.13;;
18196;SDS011;9224;52.422;13.024;2022-08-19T08:10:39;26.17;;;23.98;;
18196;SDS011;9224;52.422;13.024;2022-08-19T08:13:07;26.90;;;24.77;;
18196;SDS011;9224;52.422;13.024;2022-08-19T08:15:34;26.75;;;24.75;;
18196;SDS011;9224;52.422;13.024;2022-08-19T08:18:02;27.63;;;25.52;;
18196;SDS011;9224;52.422;13.024;2022-08-19T08:20:28;29.02;;;26.60;;
18196;SDS011;9224;52.422;13.024;2022-08-19T08:22:55;28.10;;;25.75;;
18196;SDS011;9224;52.422;13.024;2022-08-19T08:25:39;27.70;;;25.50;;
18196;SDS011;9224;52.422;13.024;2022-08-19T08:28:07;28.30;;;26.02;;
18196;SDS011;9224;52.422;13.024;2022-08-19T08:30:34;28.90;;;26.60;;
18196;SDS011;9224;52.422;13.024;2022-08-19T08:33:02;28.05;;;25.75;;
18196;SDS011;9224;52.422;13.024;2022-08-19T08:35:29;25.92;;;23.92;;
18196;SDS011;9224;52.422;13.024;2022-08-19T08:37:55;26.70;;;24.50;;
18196;SDS011;9224;52.422;13.024;2022-08-19T08:40:26;27.88;;;25.48;;
18196;SDS011;9224;52.422;13.024;2022-08-19T08:42:56;30.75;;;28.25;;
18196;SDS011;9224;52.422;13.024;2022-08-19T08:45:28;31.35;;;28.80;;
18196;SDS011;9224;52.422;13.024;2022-08-19T08:47:57;31.58;;;29.08;;
18196;SDS011;9224;52.422;13.024;2022-08-19T08:50:28;30.85;;;28.35;;
18196;SDS011;9224;52.422;13.024;2022-08-19T08:52:56;29.23;;;26.92;;
18196;SDS011;9224;52.422;13.024;2022-08-19T08:55:28;30.10;;;27.60;;
18196;SDS011;9224;52.422;13.024;2022-08-19T08:57:57;28.58;;;26.27;;
18196;SDS011;9224;52.422;13.024;2022-08-19T09:00:26;29.17;;;26.87;;
18196;SDS011;9224;52.422;13.024;2022-08-19T09:02:56;27.50;;;25.33;;
18196;SDS011;9224;52.422;13.024;2022-08-19T09:05:23;28.13;;;25.90;;
18196;SDS011;9224;52.422;13.024;2022-08-19T09:07:53;28.05;;;25.77;;
18196;SDS011;9224;52.422;13.024;2022-08-19T09:10:26;28.15;;;25.80;;
18196;SDS011;9224;52.422;13.024;2022-08-19T09:12:58;30.50;;;28.10;;
18196;SDS011;9224;52.422;13.024;2022-08-19T09:15:34;32.38;;;29.38;;
18196;SDS011;9224;52.422;13.024;2022-08-19T09:18:03;31.73;;;29.07;;
18196;SDS011;9224;52.422;13.024;2022-08-19T09:20:31;34.00;;;31.10;;
18196;SDS011;9224;52.422;13.024;2022-08-19T09:22:58;34.08;;;31.17;;
18196;SDS011;9224;52.422;13.024;2022-08-19T09:25:24;33.42;;;30.63;;
18196;SDS011;9224;52.422;13.024;2022-08-19T09:27:52;33.25;;;30.45;;
18196;SDS011;9224;52.422;13.024;2022-08-19T09:30:22;32.70;;;30.00;;
18196;SDS011;9224;52.422;13.024;2022-08-19T09:32:51;33.08;;;30.35;;
18196;SDS011;9224;52.422;13.024;2022-08-19T09:35:19;32.75;;;30.05;;
18196;SDS011;9224;52.422;13.024;2022-08-19T09:37:47;36.92;;;33.83;;
18196;SDS011;9224;52.422;13.024;2022-08-19T09:40:14;37.47;;;34.28;;
18196;SDS011;9224;52.422;13.024;2022-08-19T09:42:41;39.30;;;36.00;;
18196;SDS011;9224;52.422;13.024;2022-08-19T09:45:09;37.92;;;34.72;;
18196;SDS011;9224;52.422;13.024;2022-08-19T09:47:36;39.25;;;35.78;;
18196;SDS011;9224;52.422;13.024;2022-08-19T09:50:05;39.08;;;35.55;;
18196;SDS011;9224;52.422;13.024;2022-08-19T09:52:33;39.70;;;36.17;;
18196;SDS011;9224;52.422;13.024;2022-08-19T09:55:01;38.38;;;35.17;;
18196;SDS011;9224;52.422;13.024;2022-08-19T09:57:28;39.95;;;36.45;;
18196;SDS011;9224;52.422;13.024;2022-08-19T09:59:55;40.08;;;36.58;;
18196;SDS011;9224;52.422;13.024;2022-08-19T10:02:21;41.60;;;38.00;;
18196;SDS011;9224;52.422;13.024;2022-08-19T10:04:48;40.10;;;36.75;;
18196;SDS011;9224;52.422;13.024;2022-08-19T10:07:33;41.40;;;37.67;;
18196;SDS011;9224;52.422;13.024;2022-08-19T10:10:00;40.95;;;37.45;;
18196;SDS011;9224;52.422;13.024;2022-08-19T10:12:26;41.60;;;37.95;;
18196;SDS011;9224;52.422;13.024;2022-08-19T10:14:53;41.58;;;37.95;;
18196;SDS011;9224;52.422;13.024;2022-08-19T10:17:21;41.70;;;38.17;;
18196;SDS011;9224;52.422;13.024;2022-08-19T10:19:47;41.22;;;37.63;;
18196;SDS011;9224;52.422;13.024;2022-08-19T10:22:14;41.47;;;37.88;;
18196;SDS011;9224;52.422;13.024;2022-08-19T10:24:42;41.22;;;37.63;;
18196;SDS011;9224;52.422;13.024;2022-08-19T10:27:08;40.03;;;36.33;;
18196;SDS011;9224;52.422;13.024;2022-08-19T10:29:37;39.47;;;35.88;;
18196;SDS011;9224;52.422;13.024;2022-08-19T10:32:05;39.88;;;36.47;;
18196;SDS011;9224;52.422;13.024;2022-08-19T10:34:33;41.13;;;37.42;;
18196;SDS011;9224;52.422;13.024;2022-08-19T10:37:01;39.95;;;36.35;;
18196;SDS011;9224;52.422;13.024;2022-08-19T10:39:28;39.40;;;35.88;;
18196;SDS011;9224;52.422;13.024;2022-08-19T10:41:57;40.87;;;37.27;;
18196;SDS011;9224;52.422;13.024;2022-08-19T10:44:23;40.17;;;36.63;;
18196;SDS011;9224;52.422;13.024;2022-08-19T10:46:50;40.27;;;36.67;;
18196;SDS011;9224;52.422;13.024;2022-08-19T10:49:17;42.75;;;38.70;;
18196;SDS011;9224;52.422;13.024;2022-08-19T10:51:45;42.80;;;38.97;;
18196;SDS011;9224;52.422;13.024;2022-08-19T10:54:29;43.83;;;39.90;;
18196;SDS011;9224;52.422;13.024;2022-08-19T10:57:11;43.85;;;39.75;;
18196;SDS011;9224;52.422;13.024;2022-08-19T10:59:37;44.28;;;40.17;;
18196;SDS011;9224;52.422;13.024;2022-08-19T11:02:05;42.20;;;38.40;;
18196;SDS011;9224;52.422;13.024;2022-08-19T11:04:34;42.10;;;38.20;;
18196;SDS011;9224;52.422;13.024;2022-08-19T11:07:02;43.30;;;39.58;;
18196;SDS011;9224;52.422;13.024;2022-08-19T11:09:29;42.75;;;39.00;;
18196;SDS011;9224;52.422;13.024;2022-08-19T11:11:56;42.38;;;38.47;;
18196;SDS011;9224;52.422;13.024;2022-08-19T11:14:23;42.23;;;38.43;;
18196;SDS011;9224;52.422;13.024;2022-08-19T11:16:50;42.25;;;38.45;;
18196;SDS011;9224;52.422;13.024;2022-08-19T11:19:18;41.75;;;38.03;;
18196;SDS011;9224;52.422;13.024;2022-08-19T11:21:46;42.33;;;38.35;;
18196;SDS011;9224;52.422;13.024;2022-08-19T11:24:15;41.10;;;37.60;;
18196;SDS011;9224;52.422;13.024;2022-08-19T11:26:43;39.80;;;36.30;;
18196;SDS011;9224;52.422;13.024;2022-08-19T11:29:11;39.63;;;36.03;;
18196;SDS011;9224;52.422;13.024;2022-08-19T11:31:40;41.33;;;37.67;;
18196;SDS011;9224;52.422;13.024;2022-08-19T11:34:11;42.17;;;38.38;;
18196;SDS011;9224;52.422;13.024;2022-08-19T11:36:39;41.75;;;37.95;;
18196;SDS011;9224;52.422;13.024;2022-08-19T11:39:08;41.50;;;37.90;;
18196;SDS011;9224;52.422;13.024;2022-08-19T11:41:35;42.03;;;38.13;;
18196;SDS011;9224;52.422;13.024;2022-08-19T11:44:02;40.90;;;37.20;;
18196;SDS011;9224;52.422;13.024;2022-08-19T11:46:29;40.90;;;37.15;;
18196;SDS011;9224;52.422;13.024;2022-08-19T11:48:58;39.22;;;35.63;;
18196;SDS011;9224;52.422;13.024;2022-08-19T11:51:26;39.40;;;35.95;;
18196;SDS011;9224;52.422;13.024;2022-08-19T11:53:53;38.05;;;34.75;;
18196;SDS011;9224;52.422;13.024;2022-08-19T11:56:21;39.97;;;36.47;;
18196;SDS011;9224;52.422;13.024;2022-08-19T11:58:49;37.72;;;34.35;;
18196;SDS011;9224;52.422;13.024;2022-08-19T12:01:17;38.20;;;34.87;;
18196;SDS011;9224;52.422;13.024;2022-08-19T12:03:45;37.05;;;33.85;;
18196;SDS011;9224;52.422;13.024;2022-08-19T12:06:15;36.75;;;33.63;;
18196;SDS011;9224;52.422;13.024;2022-08-19T12:08:48;35.97;;;32.88;;
18196;SDS011;9224;52.422;13.024;2022-08-19T12:11:15;36.83;;;33.63;;
18196;SDS011;9224;52.422;13.024;2022-08-19T12:13:42;34.97;;;31.92;;
18196;SDS011;9224;52.422;13.024;2022-08-19T12:16:10;34.53;;;31.60;;
18196;SDS011;9224;52.422;13.024;2022-08-19T12:18:37;34.03;;;31.10;;
18196;SDS011;9224;52.422;13.024;2022-08-19T12:21:06;34.28;;;31.15;;
18196;SDS011;9224;52.422;13.024;2022-08-19T12:23:34;32.47;;;29.77;;
18196;SDS011;9224;52.422;13.024;2022-08-19T12:26:02;31.63;;;29.02;;
18196;SDS011;9224;52.422;13.024;2022-08-19T12:28:30;31.70;;;29.00;;
18196;SDS011;9224;52.422;13.024;2022-08-19T12:30:56;31.45;;;28.77;;
18196;SDS011;9224;52.422;13.024;2022-08-19T12:33:23;31.52;;;28.90;;
18196;SDS011;9224;52.422;13.024;2022-08-19T12:35:52;31.05;;;28.50;;
18196;SDS011;9224;52.422;13.024;2022-08-19T12:38:19;30.42;;;27.88;;
18196;SDS011;9224;52.422;13.024;2022-08-19T12:40:50;30.27;;;27.70;;
18196;SDS011;9224;52.422;13.024;2022-08-19T12:43:17;29.05;;;26.67;;
18196;SDS011;9224;52.422;13.024;2022-08-19T12:45:45;28.33;;;25.92;;
18196;SDS011;9224;52.422;13.024;2022-08-19T12:48:12;28.08;;;25.67;;
18196;SDS011;9224;52.422;13.024;2022-08-19T12:50:39;27.87;;;25.50;;
18196;SDS011;9224;52.422;13.024;2022-08-19T12:53:06;25.00;;;22.90;;
18196;SDS011;9224;52.422;13.024;2022-08-19T12:55:32;25.98;;;23.88;;
18196;SDS011;9224;52.422;13.024;2022-08-19T12:58:00;23.95;;;22.13;;
18196;SDS011;9224;52.422;13.024;2022-08-19T13:00:27;25.25;;;23.15;;
18196;SDS011;9224;52.422;13.024;2022-08-19T13:02:54;24.63;;;22.52;;
18196;SDS011;9224;52.422;13.024;2022-08-19T13:05:21;22.85;;;21.00;;
18196;SDS011;9224;52.422;13.024;2022-08-19T13:07:49;23.45;;;21.55;;
18196;SDS011;9224;52.422;13.024;2022-08-19T13:10:18;23.08;;;21.17;;
18196;SDS011;9224;52.422;13.024;2022-08-19T13:12:46;23.05;;;21.35;;
18196;SDS011;9224;52.422;13.024;2022-08-19T13:15:15;24.10;;;22.20;;
18196;SDS011;9224;52.422;13.024;2022-08-19T13:17:44;23.33;;;21.52;;
18196;SDS011;9224;52.422;13.024;2022-08-19T13:20:12;23.30;;;21.30;;
18196;SDS011;9224;52.422;13.024;2022-08-19T13:22:39;22.25;;;20.45;;
18196;SDS011;9224;52.422;13.024;2022-08-19T13:25:06;22.93;;;21.03;;
18196;SDS011;9224;52.422;13.024;2022-08-19T13:27:33;22.30;;;20.47;;
18196;SDS011;9224;52.422;13.024;2022-08-19T13:29:59;22.45;;;20.65;;
18196;SDS011;9224;52.422;13.024;2022-08-19T13:32:45;22.17;;;20.38;;
18196;SDS011;9224;52.422;13.024;2022-08-19T13:35:35;22.10;;;20.30;;
18196;SDS011;9224;52.422;13.024;2022-08-19T13:38:01;22.48;;;20.77;;
18196;SDS011;9224;52.422;13.024;2022-08-19T13:40:30;22.30;;;20.55;;
18196;SDS011;9224;52.422;13.024;2022-08-19T13:42:59;22.52;;;20.67;;
18196;SDS011;9224;52.422;13.024;2022-08-19T13:45:27;22.67;;;20.95;;
18196;SDS011;9224;52.422;13.024;2022-08-19T13:47:56;22.10;;;20.30;;
18196;SDS011;9224;52.422;13.024;2022-08-19T13:50:24;21.45;;;19.75;;
18196;SDS011;9224;52.422;13.024;2022-08-19T13:52:52;22.35;;;20.52;;
18196;SDS011;9224;52.422;13.024;2022-08-19T13:55:20;20.65;;;18.98;;
18196;SDS011;9224;52.422;13.024;2022-08-19T13:57:49;20.92;;;19.38;;
18196;SDS011;9224;52.422;13.024;2022-08-19T14:00:16;21.42;;;19.73;;
18196;SDS011;9224;52.422;13.024;2022-08-19T14:02:44;21.02;;;19.40;;
18196;SDS011;9224;52.422;13.024;2022-08-19T14:05:14;22.50;;;20.70;;
18196;SDS011;9224;52.422;13.024;2022-08-19T14:07:42;21.85;;;20.15;;
18196;SDS011;9224;52.422;13.024;2022-08-19T14:10:09;20.92;;;19.33;;
18196;SDS011;9224;52.422;13.024;2022-08-19T14:12:37;21.95;;;20.15;;
18196;SDS011;9224;52.422;13.024;2022-08-19T14:15:05;20.77;;;19.17;;
18196;SDS011;9224;52.422;13.024;2022-08-19T14:17:34;20.90;;;19.30;;
18196;SDS011;9224;52.422;13.024;2022-08-19T14:20:01;21.00;;;19.35;;
18196;SDS011;9224;52.422;13.024;2022-08-19T14:22:34;20.55;;;18.85;;
18196;SDS011;9224;52.422;13.024;2022-08-19T14:25:01;21.10;;;19.50;;
18196;SDS011;9224;52.422;13.024;2022-08-19T14:27:27;20.65;;;19.05;;
18196;SDS011;9224;52.422;13.024;2022-08-19T14:29:54;21.02;;;19.33;;